sensor_id;sensor_type;location;lat;lon;timestamp;pressure;altitude;pressure_sealevel;temperature;humidity
60101;BME280;45978;53.646;55.930;2023-02-04T00:00:39;100382.63;;;-13.69;67.29
60101;BME280;45978;53.646;55.930;2023-02-04T00:01:41;100386.34;;;-13.64;67.41
60101;BME280;45978;53.646;55.930;2023-02-04T00:02:42;100382.09;;;-13.65;67.58
60101;BME280;45978;53.646;55.930;2023-02-04T00:03:45;100378.44;;;-13.68;67.49
60101;BME280;45978;53.646;55.930;2023-02-04T00:04:46;100381.97;;;-13.66;67.43
60101;BME280;45978;53.646;55.930;2023-02-04T00:05:47;100385.38;;;-13.66;67.37
60101;BME280;45978;53.646;55.930;2023-02-04T00:06:49;100384.72;;;-13.63;67.50
60101;BME280;45978;53.646;55.930;2023-02-04T00:07:50;100390.66;;;-13.63;67.79
60101;BME280;45978;53.646;55.930;2023-02-04T00:08:51;100368.22;;;-13.70;67.73
60101;BME280;45978;53.646;55.930;2023-02-04T00:09:53;100365.38;;;-13.74;67.87
60101;BME280;45978;53.646;55.930;2023-02-04T00:10:54;100367.69;;;-13.66;67.79
60101;BME280;45978;53.646;55.930;2023-02-04T00:11:55;100370.47;;;-13.63;67.85
60101;BME280;45978;53.646;55.930;2023-02-04T00:12:56;100381.88;;;-13.56;67.70
60101;BME280;45978;53.646;55.930;2023-02-04T00:13:58;100381.88;;;-13.56;67.93
60101;BME280;45978;53.646;55.930;2023-02-04T00:14:59;100375.50;;;-13.63;67.64
60101;BME280;45978;53.646;55.930;2023-02-04T00:16:02;100362.88;;;-13.63;67.94
60101;BME280;45978;53.646;55.930;2023-02-04T00:17:03;100369.06;;;-13.59;67.88
60101;BME280;45978;53.646;55.930;2023-02-04T00:18:04;100364.00;;;-13.59;67.46
60101;BME280;45978;53.646;55.930;2023-02-04T00:19:07;100367.63;;;-13.56;67.78
60101;BME280;45978;53.646;55.930;2023-02-04T00:20:09;100368.41;;;-13.57;67.63
60101;BME280;45978;53.646;55.930;2023-02-04T00:21:11;100365.63;;;-13.60;68.07
60101;BME280;45978;53.646;55.930;2023-02-04T00:22:13;100354.06;;;-13.68;67.76
60101;BME280;45978;53.646;55.930;2023-02-04T00:23:14;100355.72;;;-13.68;67.50
60101;BME280;45978;53.646;55.930;2023-02-04T00:24:15;100364.41;;;-13.65;67.54
60101;BME280;45978;53.646;55.930;2023-02-04T00:25:17;100365.94;;;-13.67;67.27
60101;BME280;45978;53.646;55.930;2023-02-04T00:26:18;100365.03;;;-13.67;67.44
60101;BME280;45978;53.646;55.930;2023-02-04T00:27:20;100361.19;;;-13.74;67.86
60101;BME280;45978;53.646;55.930;2023-02-04T00:28:22;100363.47;;;-13.77;67.15
60101;BME280;45978;53.646;55.930;2023-02-04T00:29:23;100354.28;;;-13.77;67.42
60101;BME280;45978;53.646;55.930;2023-02-04T00:30:26;100373.28;;;-13.70;67.69
60101;BME280;45978;53.646;55.930;2023-02-04T00:31:27;100369.63;;;-13.73;67.00
60101;BME280;45978;53.646;55.930;2023-02-04T00:32:28;100374.81;;;-13.72;67.34
60101;BME280;45978;53.646;55.930;2023-02-04T00:33:29;100369.50;;;-13.75;66.83
60101;BME280;45978;53.646;55.930;2023-02-04T00:34:34;100351.03;;;-13.86;67.61
60101;BME280;45978;53.646;55.930;2023-02-04T00:35:37;100377.59;;;-13.79;67.07
60101;BME280;45978;53.646;55.930;2023-02-04T00:36:38;100371.47;;;-13.83;66.98
60101;BME280;45978;53.646;55.930;2023-02-04T00:37:39;100363.41;;;-13.89;67.30
60101;BME280;45978;53.646;55.930;2023-02-04T00:38:41;100365.47;;;-13.95;67.27
60101;BME280;45978;53.646;55.930;2023-02-04T00:39:42;100369.63;;;-13.96;67.05
60101;BME280;45978;53.646;55.930;2023-02-04T00:40:43;100371.28;;;-13.96;67.16
60101;BME280;45978;53.646;55.930;2023-02-04T00:41:44;100380.59;;;-13.95;67.23
60101;BME280;45978;53.646;55.930;2023-02-04T00:42:46;100376.47;;;-13.94;67.24
60101;BME280;45978;53.646;55.930;2023-02-04T00:43:48;100365.88;;;-14.01;67.19
60101;BME280;45978;53.646;55.930;2023-02-04T00:44:52;100375.44;;;-13.97;66.99
60101;BME280;45978;53.646;55.930;2023-02-04T00:45:54;100364.34;;;-13.99;67.58
60101;BME280;45978;53.646;55.930;2023-02-04T00:46:56;100379.59;;;-13.97;67.24
60101;BME280;45978;53.646;55.930;2023-02-04T00:47:57;100373.44;;;-14.01;67.73
60101;BME280;45978;53.646;55.930;2023-02-04T00:48:58;100370.56;;;-14.05;67.61
60101;BME280;45978;53.646;55.930;2023-02-04T00:50:00;100383.66;;;-13.99;67.47
60101;BME280;45978;53.646;55.930;2023-02-04T00:51:01;100355.03;;;-14.22;67.57
60101;BME280;45978;53.646;55.930;2023-02-04T00:52:03;100367.97;;;-14.17;67.83
60101;BME280;45978;53.646;55.930;2023-02-04T00:53:05;100384.59;;;-14.09;67.43
60101;BME280;45978;53.646;55.930;2023-02-04T00:54:07;100382.72;;;-14.11;67.74
60101;BME280;45978;53.646;55.930;2023-02-04T00:55:09;100377.78;;;-14.10;67.93
60101;BME280;45978;53.646;55.930;2023-02-04T00:56:12;100373.38;;;-14.12;67.60
60101;BME280;45978;53.646;55.930;2023-02-04T00:57:13;100388.34;;;-14.04;67.92
60101;BME280;45978;53.646;55.930;2023-02-04T00:58:14;100380.66;;;-14.05;68.17
60101;BME280;45978;53.646;55.930;2023-02-04T00:59:16;100377.00;;;-14.09;68.13
60101;BME280;45978;53.646;55.930;2023-02-04T01:00:17;100385.72;;;-14.05;68.51
60101;BME280;45978;53.646;55.930;2023-02-04T01:01:20;100379.13;;;-14.03;68.51
60101;BME280;45978;53.646;55.930;2023-02-04T01:02:22;100379.91;;;-14.04;68.53
60101;BME280;45978;53.646;55.930;2023-02-04T01:03:23;100372.44;;;-14.03;68.25
60101;BME280;45978;53.646;55.930;2023-02-04T01:04:25;100386.31;;;-13.98;68.69
60101;BME280;45978;53.646;55.930;2023-02-04T01:05:28;100348.31;;;-14.21;68.52
60101;BME280;45978;53.646;55.930;2023-02-04T01:06:29;100384.78;;;-13.96;68.85
60101;BME280;45978;53.646;55.930;2023-02-04T01:07:30;100354.84;;;-14.13;68.33
60101;BME280;45978;53.646;55.930;2023-02-04T01:08:33;100379.91;;;-14.04;68.37
60101;BME280;45978;53.646;55.930;2023-02-04T01:09:34;100390.75;;;-14.05;68.42
60101;BME280;45978;53.646;55.930;2023-02-04T01:10:35;100398.31;;;-14.05;68.13
60101;BME280;45978;53.646;55.930;2023-02-04T01:11:36;100381.38;;;-14.18;68.46
60101;BME280;45978;53.646;55.930;2023-02-04T01:12:39;100395.97;;;-14.14;68.04
60101;BME280;45978;53.646;55.930;2023-02-04T01:13:41;100388.69;;;-14.21;68.20
60101;BME280;45978;53.646;55.930;2023-02-04T01:14:42;100386.16;;;-14.21;68.41
60101;BME280;45978;53.646;55.930;2023-02-04T01:15:43;100381.03;;;-14.33;68.05
60101;BME280;45978;53.646;55.930;2023-02-04T01:16:45;100390.72;;;-14.27;67.99
60101;BME280;45978;53.646;55.930;2023-02-04T01:17:46;100396.00;;;-14.24;68.48
60101;BME280;45978;53.646;55.930;2023-02-04T01:18:48;100390.72;;;-14.27;68.59
60101;BME280;45978;53.646;55.930;2023-02-04T01:19:51;100383.44;;;-14.35;68.59
60101;BME280;45978;53.646;55.930;2023-02-04T01:20:54;100376.50;;;-14.37;68.28
60101;BME280;45978;53.646;55.930;2023-02-04T01:21:55;100377.78;;;-14.42;68.21
60101;BME280;45978;53.646;55.930;2023-02-04T01:22:56;100387.59;;;-14.35;68.80
60101;BME280;45978;53.646;55.930;2023-02-04T01:23:58;100391.50;;;-14.39;68.74
60101;BME280;45978;53.646;55.930;2023-02-04T01:25:00;100379.28;;;-14.44;68.73
60101;BME280;45978;53.646;55.930;2023-02-04T01:26:18;100391.50;;;-14.39;68.44
60101;BME280;45978;53.646;55.930;2023-02-04T01:27:19;100391.63;;;-14.37;68.93
60101;BME280;45978;53.646;55.930;2023-02-04T01:28:20;100376.78;;;-14.44;68.54
60101;BME280;45978;53.646;55.930;2023-02-04T01:29:22;100375.41;;;-14.51;69.14
60101;BME280;45978;53.646;55.930;2023-02-04T01:30:25;100390.03;;;-14.47;68.73
60101;BME280;45978;53.646;55.930;2023-02-04T01:31:27;100391.78;;;-14.46;69.18
60101;BME280;45978;53.646;55.930;2023-02-04T01:32:31;100384.00;;;-14.49;69.14
60101;BME280;45978;53.646;55.930;2023-02-04T01:33:33;100391.69;;;-14.47;69.14
60101;BME280;45978;53.646;55.930;2023-02-04T01:34:34;100378.47;;;-14.55;68.89
60101;BME280;45978;53.646;55.930;2023-02-04T01:35:37;100379.34;;;-14.55;68.79
60101;BME280;45978;53.646;55.930;2023-02-04T01:36:39;100382.72;;;-14.54;69.25
60101;BME280;45978;53.646;55.930;2023-02-04T01:37:40;100382.72;;;-14.54;69.19
60101;BME280;45978;53.646;55.930;2023-02-04T01:38:41;100376.72;;;-14.56;69.37
60101;BME280;45978;53.646;55.930;2023-02-04T01:39:43;100376.81;;;-14.55;68.88
60101;BME280;45978;53.646;55.930;2023-02-04T01:40:45;100379.34;;;-14.55;68.76
60101;BME280;45978;53.646;55.930;2023-02-04T01:41:48;100377.22;;;-14.60;69.39
60101;BME280;45978;53.646;55.930;2023-02-04T01:42:49;100372.97;;;-14.61;68.81
60101;BME280;45978;53.646;55.930;2023-02-04T01:43:51;100392.19;;;-14.51;68.83
60101;BME280;45978;53.646;55.930;2023-02-04T01:44:53;100387.66;;;-14.56;68.97
60101;BME280;45978;53.646;55.930;2023-02-04T01:45:55;100382.41;;;-14.59;68.79
60101;BME280;45978;53.646;55.930;2023-02-04T01:46:58;100385.06;;;-14.57;68.70
60101;BME280;45978;53.646;55.930;2023-02-04T01:48:03;100382.28;;;-14.60;69.03
60101;BME280;45978;53.646;55.930;2023-02-04T01:49:05;100386.25;;;-14.52;69.26
60101;BME280;45978;53.646;55.930;2023-02-04T01:50:10;100384.84;;;-14.48;69.57
60101;BME280;45978;53.646;55.930;2023-02-04T01:51:15;100389.38;;;-14.44;68.89
60101;BME280;45978;53.646;55.930;2023-02-04T01:52:19;100371.69;;;-14.56;69.37
60101;BME280;45978;53.646;55.930;2023-02-04T01:53:25;100389.38;;;-14.44;69.00
60101;BME280;45978;53.646;55.930;2023-02-04T01:54:26;100391.69;;;-14.47;69.74
60101;BME280;45978;53.646;55.930;2023-02-04T01:55:31;100386.00;;;-14.45;69.15
60101;BME280;45978;53.646;55.930;2023-02-04T01:56:34;100371.38;;;-14.49;69.31
60101;BME280;45978;53.646;55.930;2023-02-04T01:57:36;100387.25;;;-14.40;69.63
60101;BME280;45978;53.646;55.930;2023-02-04T01:58:37;100393.03;;;-14.41;69.10
60101;BME280;45978;53.646;55.930;2023-02-04T01:59:46;100388.16;;;-14.49;69.61
60101;BME280;45978;53.646;55.930;2023-02-04T02:00:47;100378.16;;;-14.48;69.03
60101;BME280;45978;53.646;55.930;2023-02-04T02:01:51;100383.47;;;-14.45;68.82
60101;BME280;45978;53.646;55.930;2023-02-04T02:02:53;100365.84;;;-14.55;69.15
60101;BME280;45978;53.646;55.930;2023-02-04T02:03:54;100378.47;;;-14.55;68.73
60101;BME280;45978;53.646;55.930;2023-02-04T02:04:55;100373.66;;;-14.52;68.83
60101;BME280;45978;53.646;55.930;2023-02-04T02:05:58;100368.38;;;-14.55;68.81
60101;BME280;45978;53.646;55.930;2023-02-04T02:07:03;100378.06;;;-14.49;69.22
60101;BME280;45978;53.646;55.930;2023-02-04T02:08:07;100349.81;;;-14.67;69.29
60101;BME280;45978;53.646;55.930;2023-02-04T02:09:13;100381.22;;;-14.52;68.86
60101;BME280;45978;53.646;55.930;2023-02-04T02:10:17;100358.09;;;-14.68;68.74
60101;BME280;45978;53.646;55.930;2023-02-04T02:11:19;100372.84;;;-14.63;69.07
60101;BME280;45978;53.646;55.930;2023-02-04T02:12:20;100373.72;;;-14.62;68.98
60101;BME280;45978;53.646;55.930;2023-02-04T02:13:22;100370.84;;;-14.67;69.26
60101;BME280;45978;53.646;55.930;2023-02-04T02:14:26;100388.31;;;-14.58;68.87
60101;BME280;45978;53.646;55.930;2023-02-04T02:15:31;100386.56;;;-14.59;69.25
60101;BME280;45978;53.646;55.930;2023-02-04T02:16:35;100376.63;;;-14.68;69.12
60101;BME280;45978;53.646;55.930;2023-02-04T02:17:37;100346.66;;;-14.85;68.89
60101;BME280;45978;53.646;55.930;2023-02-04T02:18:39;100385.56;;;-14.61;69.49
60101;BME280;45978;53.646;55.930;2023-02-04T02:19:41;100380.41;;;-14.63;69.10
60101;BME280;45978;53.646;55.930;2023-02-04T02:20:43;100395.75;;;-14.60;69.08
60101;BME280;45978;53.646;55.930;2023-02-04T02:21:51;100386.09;;;-14.65;68.51
60101;BME280;45978;53.646;55.930;2023-02-04T02:24:27;100360.88;;;-14.76;68.98
60101;BME280;45978;53.646;55.930;2023-02-04T02:25:31;100397.09;;;-14.53;69.28
60101;BME280;45978;53.646;55.930;2023-02-04T02:26:33;100384.94;;;-14.59;69.36
60101;BME280;45978;53.646;55.930;2023-02-04T02:27:34;100389.69;;;-14.51;69.04
60101;BME280;45978;53.646;55.930;2023-02-04T02:28:37;100385.25;;;-14.54;69.57
60101;BME280;45978;53.646;55.930;2023-02-04T02:29:41;100394.28;;;-14.46;69.00
60101;BME280;45978;53.646;55.930;2023-02-04T02:30:43;100383.72;;;-14.52;69.15
60101;BME280;45978;53.646;55.930;2023-02-04T02:31:45;100392.28;;;-14.50;69.56
60101;BME280;45978;53.646;55.930;2023-02-04T02:32:48;100384.50;;;-14.53;69.58
60101;BME280;45978;53.646;55.930;2023-02-04T02:33:51;100398.59;;;-14.45;69.56
60101;BME280;45978;53.646;55.930;2023-02-04T02:34:54;100405.41;;;-14.44;69.13
60101;BME280;45978;53.646;55.930;2023-02-04T02:35:55;100372.06;;;-14.62;69.33
60101;BME280;45978;53.646;55.930;2023-02-04T02:36:59;100380.97;;;-14.55;69.32
60101;BME280;45978;53.646;55.930;2023-02-04T02:38:01;100393.56;;;-14.45;69.14
60101;BME280;45978;53.646;55.930;2023-02-04T02:39:03;100388.25;;;-14.48;70.09
60101;BME280;45978;53.646;55.930;2023-02-04T02:40:05;100393.03;;;-14.41;69.84
60101;BME280;45978;53.646;55.930;2023-02-04T02:41:08;100392.50;;;-14.37;69.87
60101;BME280;45978;53.646;55.930;2023-02-04T02:42:14;100397.56;;;-14.37;69.90
60101;BME280;45978;53.646;55.930;2023-02-04T02:43:20;100384.06;;;-14.37;69.72
60101;BME280;45978;53.646;55.930;2023-02-04T02:44:22;100387.59;;;-14.35;70.29
60101;BME280;45978;53.646;55.930;2023-02-04T02:45:27;100380.78;;;-14.36;70.29
60101;BME280;45978;53.646;55.930;2023-02-04T02:46:30;100386.72;;;-14.36;69.89
60101;BME280;45978;53.646;55.930;2023-02-04T02:47:31;100391.38;;;-14.30;70.37
60101;BME280;45978;53.646;55.930;2023-02-04T02:48:33;100380.78;;;-14.36;70.80
60101;BME280;45978;53.646;55.930;2023-02-04T02:49:35;100378.78;;;-14.40;70.29
60101;BME280;45978;53.646;55.930;2023-02-04T02:50:46;100391.63;;;-14.37;70.62
60101;BME280;45978;53.646;55.930;2023-02-04T02:51:49;100389.25;;;-14.36;70.51
60101;BME280;45978;53.646;55.930;2023-02-04T02:52:51;100382.19;;;-14.40;70.10
60101;BME280;45978;53.646;55.930;2023-02-04T02:53:54;100386.47;;;-14.39;70.24
60101;BME280;45978;53.646;55.930;2023-02-04T02:54:56;100381.56;;;-14.37;70.73
60101;BME280;45978;53.646;55.930;2023-02-04T02:55:59;100400.81;;;-14.27;70.49
60101;BME280;45978;53.646;55.930;2023-02-04T02:57:20;100392.50;;;-14.37;70.24
60101;BME280;45978;53.646;55.930;2023-02-04T02:58:30;100394.03;;;-14.39;70.22
60101;BME280;45978;53.646;55.930;2023-02-04T02:59:32;100404.00;;;-14.40;70.71
60101;BME280;45978;53.646;55.930;2023-02-04T03:00:33;100402.59;;;-14.37;70.71
60101;BME280;45978;53.646;55.930;2023-02-04T03:01:35;100390.38;;;-14.42;70.25
60101;BME280;45978;53.646;55.930;2023-02-04T03:02:37;100390.03;;;-14.47;70.25
60101;BME280;45978;53.646;55.930;2023-02-04T03:03:44;100367.28;;;-14.59;70.67
60101;BME280;45978;53.646;55.930;2023-02-04T03:04:51;100391.50;;;-14.39;70.63
60101;BME280;45978;53.646;55.930;2023-02-04T03:06:08;100398.06;;;-14.41;70.48
60101;BME280;45978;53.646;55.930;2023-02-04T03:07:13;100384.00;;;-14.49;70.38
60101;BME280;45978;53.646;55.930;2023-02-04T03:08:20;100397.72;;;-14.45;70.44
60101;BME280;45978;53.646;55.930;2023-02-04T03:09:24;100380.00;;;-14.57;70.20
60101;BME280;45978;53.646;55.930;2023-02-04T03:10:26;100397.47;;;-14.48;70.20
60101;BME280;45978;53.646;55.930;2023-02-04T03:11:27;100392.19;;;-14.51;70.55
60101;BME280;45978;53.646;55.930;2023-02-04T03:12:34;100399.63;;;-14.53;70.51
60101;BME280;45978;53.646;55.930;2023-02-04T03:13:38;100393.38;;;-14.58;70.31
60101;BME280;45978;53.646;55.930;2023-02-04T03:14:40;100370.88;;;-14.77;69.93
60101;BME280;45978;53.646;55.930;2023-02-04T03:15:43;100374.78;;;-14.81;70.09
60101;BME280;45978;53.646;55.930;2023-02-04T03:16:46;100400.22;;;-14.67;69.89
60101;BME280;45978;53.646;55.930;2023-02-04T03:17:48;100392.78;;;-14.76;70.12
60101;BME280;45978;53.646;55.930;2023-02-04T03:18:52;100381.94;;;-14.85;69.56
60101;BME280;45978;53.646;55.930;2023-02-04T03:19:53;100390.78;;;-14.80;69.71
60101;BME280;45978;53.646;55.930;2023-02-04T03:20:55;100408.16;;;-14.73;69.45
60101;BME280;45978;53.646;55.930;2023-02-04T03:21:57;100415.06;;;-14.70;69.92
60101;BME280;45978;53.646;55.930;2023-02-04T03:23:00;100411.69;;;-14.71;70.28
60101;BME280;45978;53.646;55.930;2023-02-04T03:24:03;100402.50;;;-14.81;69.85
60101;BME280;45978;53.646;55.930;2023-02-04T03:25:04;100416.59;;;-14.72;70.02
60101;BME280;45978;53.646;55.930;2023-02-04T03:26:06;100405.00;;;-14.81;70.19
60101;BME280;45978;53.646;55.930;2023-02-04T03:27:07;100390.00;;;-14.89;70.20
60101;BME280;45978;53.646;55.930;2023-02-04T03:28:09;100407.75;;;-14.78;70.25
60101;BME280;45978;53.646;55.930;2023-02-04T03:29:10;100417.31;;;-14.73;70.04
60101;BME280;45978;53.646;55.930;2023-02-04T03:30:12;100407.25;;;-14.73;69.95
60101;BME280;45978;53.646;55.930;2023-02-04T03:31:14;100400.69;;;-14.71;70.00
60101;BME280;45978;53.646;55.930;2023-02-04T03:32:16;100412.41;;;-14.62;70.22
60101;BME280;45978;53.646;55.930;2023-02-04T03:33:17;100370.09;;;-14.76;70.15
60101;BME280;45978;53.646;55.930;2023-02-04T03:34:19;100417.28;;;-14.53;70.11
60101;BME280;45978;53.646;55.930;2023-02-04T03:35:20;100391.34;;;-14.62;70.56
60101;BME280;45978;53.646;55.930;2023-02-04T03:36:21;100408.94;;;-14.52;70.63
60101;BME280;45978;53.646;55.930;2023-02-04T03:37:23;100410.84;;;-14.49;70.17
60101;BME280;45978;53.646;55.930;2023-02-04T03:38:24;100389.19;;;-14.58;70.29
60101;BME280;45978;53.646;55.930;2023-02-04T03:39:26;100406.53;;;-14.50;70.16
60101;BME280;45978;53.646;55.930;2023-02-04T03:40:27;100385.16;;;-14.56;70.63
60101;BME280;45978;53.646;55.930;2023-02-04T03:41:29;100409.69;;;-14.43;70.46
60101;BME280;45978;53.646;55.930;2023-02-04T03:42:31;100390.53;;;-14.51;70.35
60101;BME280;45978;53.646;55.930;2023-02-04T03:43:32;100401.84;;;-14.46;70.22
60101;BME280;45978;53.646;55.930;2023-02-04T03:44:33;100406.28;;;-14.43;70.29
60101;BME280;45978;53.646;55.930;2023-02-04T03:45:35;100406.41;;;-14.42;70.47
60101;BME280;45978;53.646;55.930;2023-02-04T03:46:36;100421.25;;;-14.35;69.83
60101;BME280;45978;53.646;55.930;2023-02-04T03:47:37;100423.16;;;-14.32;70.16
60101;BME280;45978;53.646;55.930;2023-02-04T03:48:39;100405.50;;;-14.42;69.70
60101;BME280;45978;53.646;55.930;2023-02-04T03:49:41;100391.41;;;-14.50;69.95
60101;BME280;45978;53.646;55.930;2023-02-04T03:50:42;100430.06;;;-14.29;70.06
60101;BME280;45978;53.646;55.930;2023-02-04T03:51:43;100403.25;;;-14.39;69.99
60101;BME280;45978;53.646;55.930;2023-02-04T03:52:44;100430.28;;;-14.26;69.79
60101;BME280;45978;53.646;55.930;2023-02-04T03:53:46;100415.69;;;-14.30;69.79
60101;BME280;45978;53.646;55.930;2023-02-04T03:54:47;100412.41;;;-14.29;69.75
60101;BME280;45978;53.646;55.930;2023-02-04T03:55:48;100424.00;;;-14.21;69.22
60101;BME280;45978;53.646;55.930;2023-02-04T03:56:49;100426.75;;;-14.18;69.43
60101;BME280;45978;53.646;55.930;2023-02-04T03:57:52;100411.13;;;-14.24;69.33
60101;BME280;45978;53.646;55.930;2023-02-04T03:58:53;100423.34;;;-14.19;69.21
60101;BME280;45978;53.646;55.930;2023-02-04T03:59:54;100428.88;;;-14.12;68.83
60101;BME280;45978;53.646;55.930;2023-02-04T04:00:56;100429.00;;;-14.11;68.88
60101;BME280;45978;53.646;55.930;2023-02-04T04:02:00;100436.94;;;-14.06;68.99
60101;BME280;45978;53.646;55.930;2023-02-04T04:03:05;100429.88;;;-14.10;69.11
60101;BME280;45978;53.646;55.930;2023-02-04T04:04:07;100423.81;;;-14.12;68.52
60101;BME280;45978;53.646;55.930;2023-02-04T04:05:09;100440.69;;;-14.01;69.16
60101;BME280;45978;53.646;55.930;2023-02-04T04:06:11;100425.84;;;-14.08;68.80
60101;BME280;45978;53.646;55.930;2023-02-04T04:07:12;100414.09;;;-14.08;68.67
60101;BME280;45978;53.646;55.930;2023-02-04T04:08:14;100423.16;;;-14.00;68.94
60101;BME280;45978;53.646;55.930;2023-02-04T04:09:15;100435.72;;;-13.89;68.53
60101;BME280;45978;53.646;55.930;2023-02-04T04:10:17;100414.59;;;-14.02;68.81
60101;BME280;45978;53.646;55.930;2023-02-04T04:11:18;100412.41;;;-13.97;68.46
60101;BME280;45978;53.646;55.930;2023-02-04T04:12:19;100440.38;;;-13.84;68.57
60101;BME280;45978;53.646;55.930;2023-02-04T04:13:20;100441.88;;;-13.86;68.22
60101;BME280;45978;53.646;55.930;2023-02-04T04:14:22;100421.22;;;-13.92;68.05
60101;BME280;45978;53.646;55.930;2023-02-04T04:15:24;100445.47;;;-13.72;68.23
60101;BME280;45978;53.646;55.930;2023-02-04T04:16:25;100427.47;;;-13.77;68.24
60101;BME280;45978;53.646;55.930;2023-02-04T04:17:28;100430.59;;;-13.69;68.16
60101;BME280;45978;53.646;55.930;2023-02-04T04:18:30;100422.03;;;-13.71;68.47
60101;BME280;45978;53.646;55.930;2023-02-04T04:19:32;100423.00;;;-13.69;68.26
60101;BME280;45978;53.646;55.930;2023-02-04T04:20:35;100439.22;;;-13.55;68.21
60101;BME280;45978;53.646;55.930;2023-02-04T04:21:36;100415.91;;;-13.63;68.26
60101;BME280;45978;53.646;55.930;2023-02-04T04:22:38;100402.28;;;-13.65;67.91
60101;BME280;45978;53.646;55.930;2023-02-04T04:23:39;100436.75;;;-13.43;68.40
60101;BME280;45978;53.646;55.930;2023-02-04T04:24:40;100442.38;;;-13.36;68.15
60101;BME280;45978;53.646;55.930;2023-02-04T04:25:42;100420.16;;;-13.40;67.85
60101;BME280;45978;53.646;55.930;2023-02-04T04:26:44;100421.41;;;-13.34;68.20
60101;BME280;45978;53.646;55.930;2023-02-04T04:27:45;100445.47;;;-13.16;68.05
60101;BME280;45978;53.646;55.930;2023-02-04T04:28:46;100436.38;;;-13.14;67.69
60101;BME280;45978;53.646;55.930;2023-02-04T04:29:47;100434.94;;;-13.10;67.79
60101;BME280;45978;53.646;55.930;2023-02-04T04:30:54;100418.47;;;-13.17;67.84
60101;BME280;45978;53.646;55.930;2023-02-04T04:31:56;100432.66;;;-13.07;67.59
60101;BME280;45978;53.646;55.930;2023-02-04T04:32:59;100421.31;;;-13.12;67.61
60101;BME280;45978;53.646;55.930;2023-02-04T04:34:00;100409.47;;;-13.13;67.06
60101;BME280;45978;53.646;55.930;2023-02-04T04:35:03;100432.38;;;-13.00;67.22
60101;BME280;45978;53.646;55.930;2023-02-04T04:36:06;100444.38;;;-12.86;67.08
60101;BME280;45978;53.646;55.930;2023-02-04T04:37:07;100449.09;;;-12.79;67.16
60101;BME280;45978;53.646;55.930;2023-02-04T04:38:09;100430.75;;;-12.88;66.92
60101;BME280;45978;53.646;55.930;2023-02-04T04:39:10;100423.59;;;-12.93;66.75
60101;BME280;45978;53.646;55.930;2023-02-04T04:40:12;100436.13;;;-12.83;66.68
60101;BME280;45978;53.646;55.930;2023-02-04T04:41:13;100432.19;;;-12.80;66.30
60101;BME280;45978;53.646;55.930;2023-02-04T04:42:17;100452.56;;;-12.66;66.31
60101;BME280;45978;53.646;55.930;2023-02-04T04:43:18;100417.69;;;-12.82;65.82
60101;BME280;45978;53.646;55.930;2023-02-04T04:44:20;100405.03;;;-12.82;66.25
60101;BME280;45978;53.646;55.930;2023-02-04T04:45:22;100455.41;;;-12.62;66.13
60101;BME280;45978;53.646;55.930;2023-02-04T04:46:23;100449.13;;;-12.67;65.57
60101;BME280;45978;53.646;55.930;2023-02-04T04:47:25;100458.16;;;-12.59;65.60
60101;BME280;45978;53.646;55.930;2023-02-04T04:48:27;100459.25;;;-12.55;65.57
60101;BME280;45978;53.646;55.930;2023-02-04T04:49:28;100457.94;;;-12.50;65.68
60101;BME280;45978;53.646;55.930;2023-02-04T04:50:30;100453.22;;;-12.45;65.43
60101;BME280;45978;53.646;55.930;2023-02-04T04:51:32;100454.44;;;-12.40;65.02
60101;BME280;45978;53.646;55.930;2023-02-04T04:52:33;100445.19;;;-12.40;65.05
60101;BME280;45978;53.646;55.930;2023-02-04T04:53:35;100456.00;;;-12.30;65.43
60101;BME280;45978;53.646;55.930;2023-02-04T04:54:36;100438.16;;;-12.32;65.17
60101;BME280;45978;53.646;55.930;2023-02-04T04:55:39;100443.44;;;-12.29;64.64
60101;BME280;45978;53.646;55.930;2023-02-04T04:56:40;100444.31;;;-12.28;64.73
60101;BME280;45978;53.646;55.930;2023-02-04T04:57:41;100441.78;;;-12.28;64.99
60101;BME280;45978;53.646;55.930;2023-02-04T04:58:43;100449.16;;;-12.20;64.71
60101;BME280;45978;53.646;55.930;2023-02-04T04:59:45;100465.13;;;-12.09;64.12
60101;BME280;45978;53.646;55.930;2023-02-04T05:00:47;100466.53;;;-12.01;63.93
60101;BME280;45978;53.646;55.930;2023-02-04T05:01:48;100476.19;;;-11.83;64.20
60101;BME280;45978;53.646;55.930;2023-02-04T05:02:50;100443.13;;;-11.73;63.98
60101;BME280;45978;53.646;55.930;2023-02-04T05:03:51;100455.63;;;-11.51;63.70
60101;BME280;45978;53.646;55.930;2023-02-04T05:04:52;100446.25;;;-11.40;63.07
60101;BME280;45978;53.646;55.930;2023-02-04T05:05:54;100457.31;;;-11.26;62.78
60101;BME280;45978;53.646;55.930;2023-02-04T05:06:56;100449.03;;;-11.24;62.26
60101;BME280;45978;53.646;55.930;2023-02-04T05:07:57;100428.34;;;-11.30;62.90
60101;BME280;45978;53.646;55.930;2023-02-04T05:08:58;100432.03;;;-11.38;62.41
60101;BME280;45978;53.646;55.930;2023-02-04T05:10:00;100454.34;;;-11.21;62.39
60101;BME280;45978;53.646;55.930;2023-02-04T05:11:02;100442.53;;;-11.20;61.76
60101;BME280;45978;53.646;55.930;2023-02-04T05:12:04;100452.09;;;-11.16;61.79
60101;BME280;45978;53.646;55.930;2023-02-04T05:13:05;100442.19;;;-11.13;61.80
60101;BME280;45978;53.646;55.930;2023-02-04T05:14:07;100466.38;;;-10.80;61.69
60101;BME280;45978;53.646;55.930;2023-02-04T05:15:08;100446.88;;;-10.67;61.65
60101;BME280;45978;53.646;55.930;2023-02-04T05:16:12;100455.13;;;-10.18;60.87
60101;BME280;45978;53.646;55.930;2023-02-04T05:17:15;100426.63;;;-9.72;60.71
60101;BME280;45978;53.646;55.930;2023-02-04T05:18:19;100446.16;;;-9.02;59.77
60101;BME280;45978;53.646;55.930;2023-02-04T05:19:21;100453.38;;;-8.35;58.60